Time;durP1;ratioP1;P1;durP2;ratioP2;P2;SDS_P1;SDS_P2;PMS_P1;PMS_P2;Temp;Humidity;BMP_temperature;BMP_pressure;BME280_temperature;BME280_humidity;BME280_pressure;Samples;Min_cycle;Max_cycle;Signal;HPM_P1;HPM_P2
2023/10/11 00:01:47;;;;;;;10.60;7.33;;;18.50;99.90;;;;;;4996521;28;20177;-66
2023/10/11 00:04:23;;;;;;;16.27;6.83;;;18.50;99.90;;;;;;4989896;28;20424;-66
2023/10/11 00:06:50;;;;;;;10.13;6.40;;;18.50;99.90;;;;;;4996201;28;20531;-66
2023/10/11 00:09:16;;;;;;;8.43;6.00;;;18.50;99.90;;;;;;4996997;28;20797;-66
2023/10/11 00:11:42;;;;;;;15.80;7.23;;;18.50;99.90;;;;;;4997579;28;20473;-66
2023/10/11 00:14:08;;;;;;;14.83;7.03;;;18.50;99.90;;;;;;4997939;28;20186;-67
2023/10/11 00:16:35;;;;;;;11.23;7.47;;;18.50;99.90;;;;;;4999939;28;20232;-66
2023/10/11 00:19:01;;;;;;;11.63;7.33;;;18.40;99.90;;;;;;4993090;28;20189;-66
2023/10/11 00:21:40;;;;;;;11.37;7.87;;;18.40;99.90;;;;;;4999082;28;20419;-66
2023/10/11 00:24:07;;;;;;;12.80;7.47;;;18.40;99.90;;;;;;4994187;28;20412;-66
2023/10/11 00:26:40;;;;;;;11.00;7.77;;;18.40;99.90;;;;;;4995183;28;20439;-66
2023/10/11 00:29:05;;;;;;;16.57;7.20;;;18.40;99.90;;;;;;4997585;28;20447;-66
2023/10/11 00:31:35;;;;;;;11.87;7.63;;;18.40;99.90;;;;;;5002979;28;20769;-66
2023/10/11 00:34:03;;;;;;;12.53;7.10;;;18.40;99.90;;;;;;4995049;28;20386;-66
2023/10/11 00:36:30;;;;;;;11.40;6.83;;;18.40;99.90;;;;;;4997640;28;20443;-66
2023/10/11 00:38:56;;;;;;;9.10;6.60;;;18.30;99.90;;;;;;5000412;28;20526;-66
2023/10/11 00:41:25;;;;;;;15.07;8.30;;;18.30;99.90;;;;;;4997582;28;20972;-66
2023/10/11 00:43:52;;;;;;;11.00;7.00;;;18.30;99.90;;;;;;4990871;28;20977;-66
2023/10/11 00:46:36;;;;;;;9.10;6.80;;;18.20;99.90;;;;;;5003768;28;20412;-66
2023/10/11 00:49:09;;;;;;;10.30;6.57;;;18.20;99.90;;;;;;5004729;28;20749;-66
2023/10/11 00:51:37;;;;;;;12.23;7.07;;;18.20;99.90;;;;;;5003467;28;20777;-67
2023/10/11 00:54:07;;;;;;;13.60;8.10;;;18.20;99.90;;;;;;4998909;28;20962;-67
2023/10/11 00:56:32;;;;;;;12.30;7.47;;;18.10;99.90;;;;;;5005002;28;20934;-66
2023/10/11 00:58:59;;;;;;;12.10;6.60;;;18.10;99.90;;;;;;4999479;28;20458;-66
2023/10/11 01:01:25;;;;;;;14.47;7.50;;;18.10;99.90;;;;;;4996351;28;20177;-66
2023/10/11 01:03:55;;;;;;;13.13;9.50;;;18.10;99.90;;;;;;4996332;28;20840;-67
2023/10/11 01:06:25;;;;;;;12.80;8.90;;;18.10;99.90;;;;;;4997558;28;20436;-66
2023/10/11 01:08:52;;;;;;;10.47;6.43;;;18.10;99.90;;;;;;4994123;28;20452;-66
2023/10/11 01:11:18;;;;;;;12.20;7.27;;;18.00;99.90;;;;;;5000926;28;20427;-66
2023/10/11 01:13:50;;;;;;;16.60;6.93;;;18.00;99.90;;;;;;4999907;28;20475;-66
2023/10/11 01:16:25;;;;;;;14.20;7.43;;;17.90;99.90;;;;;;4997413;28;20428;-66
2023/10/11 01:18:51;;;;;;;12.10;8.97;;;17.90;99.90;;;;;;4994234;28;20413;-66
2023/10/11 01:21:17;;;;;;;15.60;7.90;;;17.90;99.90;;;;;;4996501;28;20913;-66
2023/10/11 01:23:42;;;;;;;10.20;7.03;;;17.80;99.90;;;;;;4999403;28;20233;-66
2023/10/11 01:26:08;;;;;;;8.40;6.23;;;17.70;99.90;;;;;;4998116;28;20236;-66
2023/10/11 01:28:48;;;;;;;10.10;6.60;;;17.60;99.90;;;;;;4992903;28;20276;-66
2023/10/11 01:31:16;;;;;;;12.20;7.33;;;17.70;99.90;;;;;;4995167;28;20826;-66
2023/10/11 01:33:44;;;;;;;10.60;7.23;;;17.70;99.90;;;;;;4993472;28;20539;-66
2023/10/11 01:36:21;;;;;;;16.43;7.40;;;17.60;99.90;;;;;;4989194;28;21247;-66
2023/10/11 01:38:47;;;;;;;10.23;6.20;;;17.50;99.90;;;;;;4998226;28;20427;-66
2023/10/11 01:41:18;;;;;;;13.00;8.97;;;17.50;99.90;;;;;;4997756;28;21083;-66
2023/10/11 01:43:46;;;;;;;18.03;8.00;;;17.40;99.90;;;;;;5000459;28;20581;-67
2023/10/11 01:46:16;;;;;;;10.70;7.30;;;17.60;99.90;;;;;;4996213;28;20450;-66
2023/10/11 01:48:45;;;;;;;15.53;8.33;;;17.50;99.90;;;;;;5004958;28;20470;-66
2023/10/11 01:51:15;;;;;;;13.73;6.97;;;17.50;99.90;;;;;;5004805;28;20506;-66
2023/10/11 01:53:41;;;;;;;10.80;7.00;;;17.50;99.90;;;;;;5002883;28;20468;-66
2023/10/11 01:56:07;;;;;;;11.60;7.57;;;17.50;99.90;;;;;;4996762;28;20440;-66
2023/10/11 01:58:37;;;;;;;15.73;8.20;;;17.50;99.90;;;;;;5002219;28;20492;-66
2023/10/11 02:01:03;;;;;;;12.40;7.70;;;17.40;99.90;;;;;;4995151;28;20463;-66
2023/10/11 02:03:29;;;;;;;15.17;7.70;;;17.40;99.90;;;;;;4999497;28;20487;-66
2023/10/11 02:05:55;;;;;;;14.63;7.70;;;17.40;99.90;;;;;;5003324;28;21011;-66
2023/10/11 02:08:21;;;;;;;16.07;8.43;;;17.30;99.90;;;;;;4997664;28;20928;-66
2023/10/11 02:10:46;;;;;;;10.73;7.13;;;17.30;99.90;;;;;;4998158;28;20190;-66
2023/10/11 02:13:12;;;;;;;17.20;7.00;;;17.30;99.90;;;;;;4997771;28;20256;-66
2023/10/11 02:15:40;;;;;;;16.90;7.27;;;17.20;99.90;;;;;;5004453;28;20172;-66
2023/10/11 02:18:10;;;;;;;10.70;7.40;;;17.20;99.90;;;;;;5003652;28;20173;-66
2023/10/11 02:20:43;;;;;;;14.30;7.83;;;17.10;99.90;;;;;;5005488;28;20403;-66
2023/10/11 02:23:11;;;;;;;11.33;7.73;;;17.10;99.90;;;;;;5004245;28;21184;-67
2023/10/11 02:25:44;;;;;;;13.87;7.90;;;17.10;99.90;;;;;;5002159;28;20440;-66
2023/10/11 02:28:09;;;;;;;10.27;6.93;;;17.00;99.90;;;;;;5002557;28;20444;-66
2023/10/11 02:30:38;;;;;;;13.40;7.93;;;17.00;99.90;;;;;;5008631;28;20964;-66
2023/10/11 02:33:07;;;;;;;11.90;7.50;;;17.00;99.90;;;;;;5009940;28;20209;-66
2023/10/11 02:35:44;;;;;;;17.80;8.60;;;17.00;99.90;;;;;;5002119;28;20412;-66
2023/10/11 02:38:10;;;;;;;12.30;7.87;;;16.90;99.90;;;;;;5003163;28;20501;-66
2023/10/11 02:40:38;;;;;;;14.53;8.33;;;16.90;99.90;;;;;;4997036;28;20412;-66
2023/10/11 02:43:03;;;;;;;14.23;7.83;;;16.90;99.90;;;;;;4995346;28;20201;-66
2023/10/11 02:45:33;;;;;;;14.67;7.73;;;16.90;99.90;;;;;;4994971;28;20494;-66
2023/10/11 02:47:59;;;;;;;11.83;8.10;;;16.90;99.90;;;;;;4994868;28;20177;-66
2023/10/11 02:50:36;;;;;;;16.80;7.60;;;16.80;99.90;;;;;;4993914;28;20421;-66
2023/10/11 02:53:21;;;;;;;12.10;7.07;;;16.80;99.90;;;;;;5015157;28;20295;-66
2023/10/11 02:55:47;;;;;;;17.97;8.70;;;16.80;99.90;;;;;;5002623;28;20499;-67
2023/10/11 02:58:21;;;;;;;11.80;7.67;;;16.80;99.90;;;;;;5002338;28;20922;-66
2023/10/11 03:00:47;;;;;;;12.00;8.20;;;16.70;99.90;;;;;;5003364;28;20396;-66
2023/10/11 03:03:15;;;;;;;15.60;8.07;;;16.70;99.90;;;;;;4992909;28;20544;-66
2023/10/11 03:05:41;;;;;;;13.90;7.43;;;16.70;99.90;;;;;;4997572;28;20169;-66
2023/10/11 03:08:18;;;;;;;13.37;7.97;;;16.60;99.90;;;;;;4994470;28;20823;-66
2023/10/11 03:10:45;;;;;;;14.17;8.40;;;16.60;99.90;;;;;;4997318;28;20443;-66
2023/10/11 03:13:19;;;;;;;13.17;8.83;;;16.60;99.90;;;;;;4995332;28;20467;-67
2023/10/11 03:15:46;;;;;;;15.93;8.30;;;16.60;99.90;;;;;;4990647;28;20420;-66
2023/10/11 03:18:12;;;;;;;13.73;9.07;;;16.60;99.90;;;;;;4993388;28;20433;-67
2023/10/11 03:20:38;;;;;;;16.23;8.03;;;16.60;99.90;;;;;;4996694;28;20819;-67
2023/10/11 03:23:10;;;;;;;14.00;7.87;;;16.60;99.90;;;;;;5000892;28;20206;-66
2023/10/11 03:25:38;;;;;;;14.03;8.70;;;16.60;99.90;;;;;;4992282;28;20451;-66
2023/10/11 03:28:05;;;;;;;16.73;7.90;;;16.50;99.90;;;;;;4999419;28;20455;-66
2023/10/11 03:30:35;;;;;;;14.27;8.07;;;16.50;99.90;;;;;;4995833;28;20420;-66
2023/10/11 03:33:02;;;;;;;19.10;9.90;;;16.50;99.90;;;;;;4997419;28;20469;-66
2023/10/11 03:35:33;;;;;;;14.03;8.43;;;16.50;99.90;;;;;;4990511;28;20432;-67
2023/10/11 03:37:59;;;;;;;16.77;8.27;;;16.50;99.90;;;;;;4998719;28;20441;-66
2023/10/11 03:40:50;;;;;;;12.73;8.00;;;16.40;99.90;;;;;;4993434;28;20426;-66
2023/10/11 03:43:16;;;;;;;13.00;7.57;;;16.40;99.90;;;;;;4998191;28;20454;-66
2023/10/11 03:45:49;;;;;;;13.00;8.27;;;16.40;99.90;;;;;;4994455;28;20935;-66
2023/10/11 03:48:19;;;;;;;11.30;7.47;;;16.40;99.90;;;;;;4995952;28;20428;-67
2023/10/11 03:50:51;;;;;;;16.63;8.63;;;16.30;99.90;;;;;;4994841;28;20455;-66
2023/10/11 03:53:17;;;;;;;14.50;7.70;;;16.20;99.90;;;;;;4998442;28;20473;-66
2023/10/11 03:55:49;;;;;;;14.13;8.23;;;16.30;99.90;;;;;;4997277;28;20519;-66
2023/10/11 03:58:33;;;;;;;12.80;7.00;;;16.30;99.90;;;;;;4992298;28;20201;-66
2023/10/11 04:01:13;;;;;;;16.50;8.10;;;16.30;99.90;;;;;;4995953;28;20780;-66
2023/10/11 04:03:40;;;;;;;13.63;7.43;;;16.30;99.90;;;;;;4992325;28;20436;-67
2023/10/11 04:06:19;;;;;;;13.00;7.83;;;16.20;99.90;;;;;;4997778;28;20795;-67
2023/10/11 04:09:02;;;;;;;12.43;7.03;;;16.20;99.90;;;;;;4995178;28;20438;-66
2023/10/11 04:11:37;;;;;;;11.53;7.67;;;16.20;99.90;;;;;;4994548;28;20416;-66
2023/10/11 04:14:12;;;;;;;12.47;7.23;;;16.20;99.90;;;;;;4996379;28;20807;-66
2023/10/11 04:16:38;;;;;;;14.83;8.43;;;16.20;99.90;;;;;;4992498;28;20435;-66
2023/10/11 04:19:04;;;;;;;15.53;7.27;;;16.20;99.90;;;;;;4992452;28;20764;-66
2023/10/11 04:21:53;;;;;;;14.77;7.97;;;16.20;99.90;;;;;;5002016;28;20413;-66
2023/10/11 04:24:19;;;;;;;12.40;6.77;;;16.20;99.90;;;;;;4999694;28;20189;-66
2023/10/11 04:26:58;;;;;;;11.50;7.53;;;16.20;99.90;;;;;;5000603;28;20482;-66
2023/10/11 04:29:31;;;;;;;15.33;7.47;;;16.10;99.90;;;;;;4996868;28;20478;-66
2023/10/11 04:34:32;;;;;;;13.40;7.27;;;16.10;99.90;;;;;;4999092;28;20408;-66
2023/10/11 04:37:06;;;;;;;12.17;7.23;;;16.10;99.90;;;;;;4995654;28;20439;-67
2023/10/11 04:39:43;;;;;;;14.27;7.83;;;16.00;99.90;;;;;;4998610;28;20451;-66
2023/10/11 04:42:10;;;;;;;13.30;7.90;;;16.00;99.90;;;;;;5001251;28;20462;-66
2023/10/11 04:44:42;;;;;;;10.57;7.40;;;15.90;99.90;;;;;;4996433;28;20429;-67
2023/10/11 04:47:11;;;;;;;18.60;8.63;;;15.90;99.90;;;;;;5000713;28;20823;-67
2023/10/11 04:49:37;;;;;;;13.93;7.93;;;15.90;99.90;;;;;;5003655;28;20524;-66
2023/10/11 04:52:17;;;;;;;15.27;7.30;;;15.90;99.90;;;;;;5004536;28;20840;-66
2023/10/11 04:54:53;;;;;;;11.50;7.33;;;15.90;99.90;;;;;;5004063;28;20181;-66
2023/10/11 04:57:23;;;;;;;12.60;7.40;;;16.00;99.90;;;;;;5001513;28;20408;-67
2023/10/11 04:59:53;;;;;;;12.90;8.37;;;15.90;99.90;;;;;;5000444;28;20860;-67
2023/10/11 05:02:28;;;;;;;13.07;6.67;;;15.90;99.90;;;;;;4997318;28;20892;-66
2023/10/11 05:04:54;;;;;;;11.10;7.43;;;15.90;99.90;;;;;;4996004;28;20416;-67
2023/10/11 05:07:21;;;;;;;13.00;7.00;;;15.90;99.90;;;;;;5000085;28;20448;-68
2023/10/11 05:10:19;;;;;;;9.53;7.33;;;15.90;99.90;;;;;;4998283;28;21042;-68
2023/10/11 05:12:46;;;;;;;13.80;7.40;;;15.90;99.90;;;;;;4999502;28;20459;-68
2023/10/11 05:15:15;;;;;;;11.60;6.57;;;15.90;99.90;;;;;;4995837;28;20468;-66
2023/10/11 05:17:41;;;;;;;13.23;7.00;;;15.80;99.90;;;;;;5000472;28;20874;-66
2023/10/11 05:28:07;;;;;;;11.53;7.80;;;15.70;99.90;;;;;;5003629;28;20474;-67
2023/10/11 05:30:34;;;;;;;12.83;7.27;;;15.70;99.90;;;;;;4996408;28;20931;-68
2023/10/11 05:52:09;;;;;;;9.60;6.73;;;15.70;99.90;;;;;;4999084;28;20486;-67
2023/10/11 05:54:35;;;;;;;13.70;7.40;;;15.60;99.90;;;;;;5004461;28;20929;-67
2023/10/11 05:57:05;;;;;;;15.47;7.90;;;15.70;99.90;;;;;;5000509;28;20212;-67
2023/10/11 05:59:37;;;;;;;14.13;8.10;;;15.60;99.90;;;;;;5001594;28;20432;-67
2023/10/11 06:02:18;;;;;;;12.23;8.10;;;15.60;99.90;;;;;;5004241;28;20530;-67
2023/10/11 06:04:45;;;;;;;25.63;8.10;;;15.70;99.90;;;;;;5006797;28;20436;-66
2023/10/11 06:07:13;;;;;;;17.90;7.63;;;15.70;99.90;;;;;;5002075;28;20441;-68
2023/10/11 06:09:46;;;;;;;17.10;7.00;;;15.80;99.90;;;;;;4993827;28;20975;-67
2023/10/11 06:12:26;;;;;;;12.70;7.13;;;15.80;99.90;;;;;;4996173;28;20471;-67
2023/10/11 06:14:56;;;;;;;12.63;6.80;;;15.90;99.90;;;;;;4993036;28;20417;-65
2023/10/11 06:17:32;;;;;;;14.37;8.03;;;15.80;99.90;;;;;;4997045;28;20412;-66
2023/10/11 06:20:17;;;;;;;16.03;7.23;;;15.80;99.90;;;;;;4996217;28;20468;-66
2023/10/11 06:22:44;;;;;;;15.07;7.70;;;15.90;99.90;;;;;;4993695;28;21021;-67
2023/10/11 06:25:13;;;;;;;9.70;6.60;;;15.80;99.90;;;;;;4996750;28;20425;-66
2023/10/11 06:30:22;;;;;;;10.67;7.00;;;15.90;99.90;;;;;;4994612;28;20804;-67
2023/10/11 06:32:50;;;;;;;14.80;7.07;;;15.90;99.90;;;;;;4999614;28;20467;-67
2023/10/11 06:35:23;;;;;;;14.17;7.87;;;15.90;99.90;;;;;;4996153;28;20181;-66
2023/10/11 06:37:52;;;;;;;10.73;6.27;;;16.00;99.90;;;;;;5014779;28;20928;-66
2023/10/11 06:40:38;;;;;;;16.97;7.93;;;16.00;99.90;;;;;;4996739;28;20451;-67
2023/10/11 06:43:07;;;;;;;13.97;6.80;;;16.10;99.90;;;;;;5002053;28;20439;-66
2023/10/11 06:45:33;;;;;;;21.90;8.13;;;16.00;99.90;;;;;;4995158;28;20523;-67
2023/10/11 06:48:06;;;;;;;13.93;8.40;;;16.00;99.90;;;;;;4994242;28;20542;-67
2023/10/11 06:50:36;;;;;;;11.83;7.40;;;16.00;99.90;;;;;;4996189;28;20494;-67
2023/10/11 06:53:08;;;;;;;11.57;7.37;;;16.00;99.90;;;;;;4994724;28;20457;-67
2023/10/11 06:55:40;;;;;;;12.73;6.90;;;15.90;99.90;;;;;;4994759;28;20424;-67
2023/10/11 06:58:15;;;;;;;12.43;7.10;;;16.10;99.90;;;;;;4993934;28;20424;-67
2023/10/11 07:00:45;;;;;;;16.90;9.33;;;16.10;99.90;;;;;;4994604;28;20795;-67
2023/10/11 07:05:56;;;;;;;13.13;8.03;;;16.10;99.90;;;;;;4995354;28;20467;-67
2023/10/11 07:08:31;;;;;;;12.50;7.33;;;16.10;99.90;;;;;;5004203;28;20793;-67
2023/10/11 07:11:16;;;;;;;12.10;7.43;;;16.10;99.90;;;;;;4998038;28;20462;-68
2023/10/11 07:14:00;;;;;;;12.10;7.93;;;16.10;99.90;;;;;;4996133;28;20480;-67
2023/10/11 07:16:27;;;;;;;14.87;8.10;;;16.00;99.90;;;;;;4996855;28;20424;-66
2023/10/11 07:18:54;;;;;;;13.17;7.67;;;16.00;99.90;;;;;;4996918;28;20971;-67
2023/10/11 07:21:41;;;;;;;13.27;6.60;;;16.10;99.90;;;;;;5000231;28;20527;-67
2023/10/11 07:24:19;;;;;;;12.50;8.10;;;16.20;99.90;;;;;;4998545;28;20436;-67
2023/10/11 07:29:16;;;;;;;13.17;6.97;;;16.50;99.90;;;;;;4992782;28;20437;-67
2023/10/11 07:31:51;;;;;;;12.10;6.60;;;16.50;99.90;;;;;;4991237;28;20495;-67
2023/10/11 07:34:20;;;;;;;13.00;7.00;;;16.60;99.90;;;;;;4997251;28;20463;-67
2023/10/11 07:36:48;;;;;;;10.37;6.20;;;16.60;99.90;;;;;;4996561;28;20432;-67
2023/10/11 07:42:01;;;;;;;12.47;8.27;;;16.60;99.90;;;;;;4994402;28;20475;-67
2023/10/11 07:44:29;;;;;;;10.50;6.90;;;16.70;99.90;;;;;;4994587;28;20444;-68
2023/10/11 07:46:55;;;;;;;15.37;7.43;;;16.70;99.90;;;;;;4997143;28;20447;-68
2023/10/11 07:49:24;;;;;;;17.40;8.17;;;16.70;99.90;;;;;;4996208;28;20474;-67
2023/10/11 07:51:58;;;;;;;16.23;7.27;;;16.70;99.90;;;;;;4994894;28;20601;-67
2023/10/11 07:54:27;;;;;;;14.13;6.40;;;16.90;99.90;;;;;;4999143;28;20442;-66
2023/10/11 07:56:57;;;;;;;12.13;6.80;;;16.90;99.90;;;;;;4998896;28;20510;-66
2023/10/11 07:59:27;;;;;;;12.67;7.20;;;16.90;99.90;;;;;;4995253;28;20518;-66
2023/10/11 08:01:58;;;;;;;11.17;7.70;;;16.90;99.90;;;;;;4996679;28;20436;-66
2023/10/11 08:04:29;;;;;;;11.43;8.50;;;17.00;99.90;;;;;;4993258;28;20965;-66
2023/10/11 08:06:59;;;;;;;13.77;7.43;;;17.00;99.90;;;;;;4999525;28;20961;-66
2023/10/11 08:09:45;;;;;;;11.63;6.53;;;17.10;99.90;;;;;;4992304;28;20859;-66
2023/10/11 08:12:13;;;;;;;19.30;7.10;;;17.20;99.90;;;;;;4992208;28;20441;-67
2023/10/11 08:14:44;;;;;;;12.93;6.63;;;17.30;99.90;;;;;;4998384;28;20857;-67
2023/10/11 08:17:11;;;;;;;16.37;8.03;;;17.40;99.90;;;;;;4995204;28;21307;-67
2023/10/11 08:19:37;;;;;;;14.23;7.43;;;17.30;99.90;;;;;;4994174;28;20412;-67
2023/10/11 08:22:09;;;;;;;15.23;7.07;;;17.30;99.90;;;;;;4991261;28;20858;-66
2023/10/11 08:24:49;;;;;;;14.87;7.53;;;17.40;99.90;;;;;;4995529;28;20234;-66
2023/10/11 08:27:28;;;;;;;15.73;7.10;;;17.40;99.90;;;;;;4993661;28;20432;-66
2023/10/11 08:30:06;;;;;;;9.97;6.30;;;17.40;99.90;;;;;;4993761;28;20448;-66
2023/10/11 08:32:42;;;;;;;13.03;8.50;;;17.60;99.90;;;;;;4996881;28;20475;-66
2023/10/11 08:35:26;;;;;;;11.50;6.50;;;17.60;99.90;;;;;;4997097;28;20493;-66
2023/10/11 08:38:00;;;;;;;12.13;6.17;;;17.70;99.90;;;;;;5008455;28;20435;-66
2023/10/11 08:40:34;;;;;;;12.93;7.30;;;17.80;99.90;;;;;;4993748;28;20404;-67
2023/10/11 08:43:01;;;;;;;11.27;6.67;;;17.90;99.90;;;;;;4996233;28;20507;-67
2023/10/11 08:45:28;;;;;;;12.03;6.97;;;18.00;99.90;;;;;;4992994;28;20540;-67
2023/10/11 08:47:54;;;;;;;14.23;7.00;;;18.00;99.90;;;;;;4992273;28;20432;-66
2023/10/11 08:50:21;;;;;;;10.40;6.00;;;18.10;99.90;;;;;;4993225;28;20451;-67
2023/10/11 08:52:46;;;;;;;10.40;7.10;;;18.20;99.90;;;;;;4995998;28;20216;-66
2023/10/11 08:55:13;;;;;;;13.07;6.87;;;18.20;99.90;;;;;;4997116;28;20810;-66
2023/10/11 08:57:38;;;;;;;15.93;6.73;;;18.40;99.90;;;;;;4996599;28;20181;-66
2023/10/11 09:00:19;;;;;;;11.60;6.03;;;18.50;99.90;;;;;;4991686;28;20428;-66
2023/10/11 09:02:52;;;;;;;13.20;5.83;;;18.60;99.90;;;;;;4995120;28;20202;-66
2023/10/11 09:05:32;;;;;;;14.17;6.90;;;18.70;99.90;;;;;;4990381;28;20445;-66
2023/10/11 09:08:02;;;;;;;11.47;6.40;;;18.80;99.90;;;;;;5002340;28;20505;-69
2023/10/11 09:10:29;;;;;;;10.90;6.10;;;18.90;99.90;;;;;;5000292;28;20580;-66
2023/10/11 09:12:57;;;;;;;11.90;6.70;;;19.00;99.90;;;;;;4996402;28;20476;-66
2023/10/11 09:15:36;;;;;;;14.67;6.87;;;19.10;99.90;;;;;;4996580;28;20433;-66
2023/10/11 09:18:13;;;;;;;10.30;6.20;;;19.20;99.90;;;;;;4998902;28;20798;-67
2023/10/11 09:20:42;;;;;;;16.77;6.70;;;19.20;99.90;;;;;;4994813;28;20432;-66
2023/10/11 09:23:11;;;;;;;14.70;6.80;;;19.30;99.90;;;;;;4994929;28;20499;-66
2023/10/11 09:25:59;;;;;;;13.60;5.80;;;19.40;99.90;;;;;;4999206;28;20802;-66
2023/10/11 09:28:28;;;;;;;11.13;6.33;;;19.60;99.90;;;;;;5003245;28;20821;-66
2023/10/11 09:31:13;;;;;;;9.30;6.00;;;19.60;99.90;;;;;;4999304;28;20483;-66
2023/10/11 09:33:59;;;;;;;11.23;6.57;;;19.70;99.90;;;;;;4999785;28;20795;-66
2023/10/11 09:36:28;;;;;;;13.90;6.47;;;19.80;99.90;;;;;;5000974;28;20862;-66
2023/10/11 09:38:54;;;;;;;15.50;6.93;;;19.90;99.90;;;;;;5003180;28;20444;-66
2023/10/11 09:41:42;;;;;;;10.73;5.73;;;20.00;99.90;;;;;;5002870;28;20486;-66
2023/10/11 09:44:11;;;;;;;13.40;6.83;;;20.10;99.90;;;;;;4998861;28;20436;-66
2023/10/11 09:46:37;;;;;;;10.60;6.73;;;20.20;99.90;;;;;;4998094;28;20494;-66
2023/10/11 09:49:04;;;;;;;15.20;6.83;;;20.30;99.90;;;;;;4994489;28;20420;-67
2023/10/11 09:51:31;;;;;;;15.00;5.93;;;20.40;99.90;;;;;;5014752;28;20454;-67
2023/10/11 09:54:07;;;;;;;10.83;6.00;;;20.50;99.90;;;;;;4992455;28;20473;-67
2023/10/11 09:56:50;;;;;;;9.60;5.07;;;20.60;99.90;;;;;;4999113;28;20500;-66
2023/10/11 09:59:37;;;;;;;18.50;6.73;;;20.70;99.90;;;;;;4992476;28;20691;-65
2023/10/11 10:02:33;;;;;;;8.83;5.80;;;20.80;99.90;;;;;;5010259;28;20500;-66
2023/10/11 10:05:04;;;;;;;10.57;6.27;;;20.90;99.90;;;;;;4999204;28;20428;-66
2023/10/11 10:07:49;;;;;;;14.53;6.00;;;21.00;99.90;;;;;;4995222;28;20440;-65
2023/10/11 10:10:16;;;;;;;9.30;5.90;;;21.10;99.90;;;;;;4996462;28;20432;-67
2023/10/11 10:13:09;;;;;;;12.63;5.60;;;21.20;99.90;;;;;;4997346;28;20476;-66
2023/10/11 10:15:47;;;;;;;11.40;5.60;;;21.30;99.90;;;;;;5000409;28;20948;-67
2023/10/11 10:18:21;;;;;;;11.90;5.37;;;21.40;99.90;;;;;;5013393;28;20428;-67
2023/10/11 10:20:56;;;;;;;12.47;5.93;;;21.40;99.90;;;;;;4994522;28;20435;-67
2023/10/11 10:23:25;;;;;;;10.50;5.90;;;21.50;99.90;;;;;;4998975;28;20455;-67
2023/10/11 10:26:06;;;;;;;9.93;5.30;;;21.70;99.90;;;;;;4999285;28;20555;-67
2023/10/11 10:28:34;;;;;;;10.20;6.40;;;21.70;99.90;;;;;;4998866;28;20750;-68
2023/10/11 10:31:11;;;;;;;15.20;5.23;;;21.90;99.90;;;;;;4998425;28;21009;-67
2023/10/11 10:33:41;;;;;;;11.83;5.67;;;21.90;99.90;;;;;;4995393;28;20551;-68
2023/10/11 10:36:19;;;;;;;12.50;6.13;;;22.10;99.90;;;;;;4997789;28;20424;-66
2023/10/11 10:41:40;;;;;;;12.90;5.03;;;22.30;99.90;;;;;;5000263;28;20492;-66
2023/10/11 10:44:14;;;;;;;16.30;5.50;;;22.40;99.90;;;;;;4992075;28;20432;-66
2023/10/11 10:46:52;;;;;;;9.60;5.60;;;22.50;99.90;;;;;;4999089;28;20427;-66
2023/10/11 10:49:19;;;;;;;13.60;6.03;;;22.60;99.90;;;;;;4997725;28;20741;-66
2023/10/11 10:51:47;;;;;;;11.97;5.67;;;22.70;99.90;;;;;;4992822;28;20444;-66
2023/10/11 10:54:14;;;;;;;12.43;6.57;;;22.80;99.90;;;;;;4995900;28;20464;-66
2023/10/11 10:56:43;;;;;;;8.03;5.30;;;22.90;99.90;;;;;;4998863;28;20560;-66
2023/10/11 10:59:14;;;;;;;8.90;6.40;;;23.00;99.90;;;;;;4991534;28;20432;-66
2023/10/11 11:01:40;;;;;;;16.10;6.47;;;23.10;99.90;;;;;;4996882;28;20764;-66
2023/10/11 11:04:08;;;;;;;14.63;6.10;;;23.10;99.90;;;;;;4989615;28;20479;-66
2023/10/11 11:06:46;;;;;;;15.03;6.20;;;23.10;99.90;;;;;;4992840;28;20966;-66
2023/10/11 11:09:19;;;;;;;9.63;5.40;;;23.20;99.90;;;;;;4995411;28;20486;-66
2023/10/11 11:11:53;;;;;;;15.63;5.77;;;23.20;99.90;;;;;;5001907;28;20701;-67
2023/10/11 11:14:19;;;;;;;11.27;5.70;;;23.20;99.90;;;;;;4998244;28;20479;-67
2023/10/11 11:17:09;;;;;;;12.43;5.03;;;23.40;99.90;;;;;;4993232;28;20540;-67
2023/10/11 11:19:35;;;;;;;10.30;5.80;;;23.50;99.90;;;;;;4994902;28;20428;-67
2023/10/11 11:22:15;;;;;;;13.40;5.80;;;23.60;99.90;;;;;;4991840;28;20459;-67
2023/10/11 11:24:42;;;;;;;7.60;5.40;;;23.70;99.90;;;;;;4990910;28;20185;-66
2023/10/11 11:27:28;;;;;;;15.33;5.20;;;23.80;99.90;;;;;;4994181;28;21335;-66
2023/10/11 11:29:54;;;;;;;12.30;5.40;;;24.00;99.90;;;;;;4994711;28;20507;-66
2023/10/11 11:32:39;;;;;;;14.50;5.30;;;24.20;99.90;;;;;;4997275;28;20915;-66
2023/10/11 11:35:10;;;;;;;11.33;4.70;;;24.40;99.90;;;;;;4998818;28;20970;-67
2023/10/11 11:37:38;;;;;;;7.87;5.20;;;24.40;99.90;;;;;;4994768;28;20495;-67
2023/10/11 11:40:24;;;;;;;11.27;6.17;;;24.50;99.90;;;;;;4990292;28;20495;-67
2023/10/11 11:42:53;;;;;;;15.67;6.83;;;24.70;99.90;;;;;;4994012;28;20983;-67
2023/10/11 11:45:27;;;;;;;11.50;5.50;;;25.00;99.90;;;;;;4997149;28;20826;-67
2023/10/11 11:47:58;;;;;;;10.47;5.77;;;25.90;99.90;;;;;;4993325;28;20428;-66
2023/10/11 11:50:33;;;;;;;10.27;5.23;;;27.50;97.80;;;;;;4997242;28;20432;-67
2023/10/11 11:53:03;;;;;;;9.07;5.93;;;29.60;94.10;;;;;;4995176;28;20478;-67
2023/10/11 11:55:29;;;;;;;12.33;5.73;;;31.40;89.00;;;;;;4996396;28;20432;-65
2023/10/11 11:57:55;;;;;;;5.93;4.90;;;32.40;79.50;;;;;;4993721;28;20428;-66
2023/10/11 12:02:52;;;;;;;9.07;5.70;;;34.20;66.70;;;;;;4994390;28;20543;-67
2023/10/11 12:05:18;;;;;;;14.83;5.83;;;34.70;62.10;;;;;;4990019;28;20464;-67
2023/10/11 12:07:43;;;;;;;12.40;5.17;;;34.60;59.30;;;;;;5000088;28;20451;-67
2023/10/11 12:10:25;;;;;;;11.03;6.10;;;35.70;57.60;;;;;;4996058;28;20500;-66
2023/10/11 12:12:55;;;;;;;11.90;5.50;;;35.60;55.30;;;;;;4992051;28;20355;-66
2023/10/11 12:15:24;;;;;;;11.63;5.50;;;36.30;54.90;;;;;;4991680;28;21111;-66
2023/10/11 12:17:53;;;;;;;10.60;4.77;;;36.70;52.80;;;;;;4991595;28;20425;-66
2023/10/11 12:20:19;;;;;;;13.93;6.37;;;36.10;51.70;;;;;;4992185;28;20442;-66
2023/10/11 12:22:45;;;;;;;10.47;5.70;;;35.50;52.30;;;;;;4996419;28;20443;-65
2023/10/11 12:25:14;;;;;;;11.10;5.70;;;35.70;52.10;;;;;;4996659;28;20273;-65
2023/10/11 12:27:42;;;;;;;10.80;5.50;;;36.50;51.50;;;;;;5000818;28;20459;-66
2023/10/11 12:30:19;;;;;;;11.27;5.33;;;36.50;50.70;;;;;;4991903;28;20493;-66
2023/10/11 12:32:45;;;;;;;8.80;5.53;;;37.10;50.10;;;;;;4993654;28;20478;-66
2023/10/11 12:35:11;;;;;;;12.07;5.80;;;37.40;48.60;;;;;;4991938;28;20394;-66
2023/10/11 12:37:36;;;;;;;11.80;5.53;;;37.70;48.70;;;;;;4990778;28;20432;-66
2023/10/11 12:40:11;;;;;;;11.60;5.10;;;37.50;47.80;;;;;;4994224;28;20706;-66
2023/10/11 12:42:37;;;;;;;9.20;5.60;;;38.20;46.90;;;;;;5016020;28;20407;-66
2023/10/11 12:45:07;;;;;;;9.13;5.30;;;38.70;45.40;;;;;;5000129;28;20511;-66
2023/10/11 12:47:36;;;;;;;13.63;6.83;;;38.30;45.60;;;;;;4997133;28;20193;-67
2023/10/11 12:50:03;;;;;;;6.40;5.27;;;37.80;44.70;;;;;;4996633;28;20440;-66
2023/10/11 12:52:30;;;;;;;9.90;5.80;;;38.40;45.00;;;;;;4999238;28;20523;-66
2023/10/11 12:54:57;;;;;;;11.57;5.57;;;38.50;44.70;;;;;;5000934;28;20523;-66
2023/10/11 12:57:23;;;;;;;12.47;6.27;;;38.20;44.10;;;;;;5005146;28;20945;-66
2023/10/11 12:59:49;;;;;;;7.30;5.77;;;37.10;44.70;;;;;;4983404;28;20440;-66
2023/10/11 13:02:21;;;;;;;8.77;5.30;;;35.70;45.70;;;;;;4995435;28;21078;-66
2023/10/11 13:04:47;;;;;;;9.90;5.60;;;34.90;47.00;;;;;;4996938;28;20885;-67
2023/10/11 13:07:16;;;;;;;9.40;5.50;;;34.20;47.70;;;;;;4993045;28;20436;-67
2023/10/11 13:09:41;;;;;;;10.63;5.57;;;33.60;48.80;;;;;;4997891;28;20399;-67
2023/10/11 13:12:08;;;;;;;11.60;5.77;;;33.40;49.00;;;;;;4998573;28;20901;-65
2023/10/11 13:14:35;;;;;;;12.40;5.43;;;33.30;50.00;;;;;;4997120;28;20590;-67
2023/10/11 13:17:04;;;;;;;13.33;6.10;;;33.20;49.90;;;;;;5003123;28;20420;-67
2023/10/11 13:19:30;;;;;;;11.10;5.60;;;33.20;50.20;;;;;;5001880;28;20427;-68
2023/10/11 13:21:56;;;;;;;10.00;5.10;;;33.30;50.30;;;;;;4996349;28;20928;-65
2023/10/11 13:24:26;;;;;;;15.47;6.63;;;33.20;50.10;;;;;;4996554;28;20786;-66
2023/10/11 13:26:54;;;;;;;9.30;5.50;;;33.00;50.20;;;;;;4998150;28;20508;-66
2023/10/11 13:29:20;;;;;;;8.00;5.30;;;32.70;50.70;;;;;;4997082;28;20406;-66
2023/10/11 13:31:56;;;;;;;19.00;6.40;;;32.50;50.90;;;;;;5012161;28;20566;-66
2023/10/11 13:34:28;;;;;;;8.50;6.13;;;32.30;51.20;;;;;;4997560;28;20469;-66
2023/10/11 13:36:57;;;;;;;13.23;5.77;;;32.00;51.10;;;;;;4997001;28;20424;-66
2023/10/11 13:39:26;;;;;;;8.77;5.67;;;32.00;51.90;;;;;;5000768;28;20889;-67
2023/10/11 13:41:52;;;;;;;10.73;5.60;;;31.90;52.10;;;;;;5001498;28;20945;-66
2023/10/11 13:44:19;;;;;;;9.23;5.60;;;31.80;52.10;;;;;;5006472;28;20464;-66